El Sayed El Nenny

Olheiro - El Masry
5 Dez 2027
Domingo
Processo

Personalidade

Adaptabilidade (11) Ambição (11) Controvérsia (7) Lealdade (5) Pressão (6) Profissionalismo (5) Espírito Esportivo (1) Temperamento (2)

Perfil

Estilo de Treinamento Democrático
Licença Continental B
Determinação 3
Gestão de Pessoas 4
Motivação 4
Disciplina 10
Satisfação no Trabalho
100%
Fadiga
0%
Função Olheiro
Salário 33.1K p/s
Contrato 14.03.2029

Desempenho

Comportamento Bom
Eficácia do Treinamento
34%
Desenvolvimento do Jogador
20%
Prevenção de Lesões
45%
Implementação Tática
55%

Eventos Recentes

Participou de uma reunião de recrutamento agora
Participou de uma reunião de recrutamento 7d atrás
Participou de uma reunião de recrutamento 7d atrás
Participou de uma reunião de recrutamento 7d atrás
Participou de uma reunião de recrutamento 14d atrás
Participou de uma reunião de recrutamento 14d atrás
Participou de uma reunião de recrutamento 14d atrás
Participou de uma reunião de recrutamento 21d atrás

Monitorando agora

77
Jogador Clube Status Habilidade Confiança Observado Última observação Último voto
Insa Badji Smouha Ativo 87 / 89 55% 1 28.06.2027 -
Hesham Balaha Smouha Ativo 104 / 106 55% 1 01.06.2027 -
Brian De Keersmaecker Oxford United Ativo 110 / 133 40% 1 31.05.2027 -
Gonçalo Franco Swansea City Ativo 124 / 120 40% 1 31.05.2027 -
Oliver Arblaster Sheffield United Ativo 147 / 150 40% 1 29.05.2027 -
Daniel Phillips Stevenage Ativo 111 / 108 40% 1 29.05.2027 -
Dramane Kamagaté USM Alger Ativo 92 / 100 40% 1 27.05.2027 -
Marcus Forss Bristol Rovers Ativo 126 / 128 40% 1 27.05.2027 -
Tammer Kumar West Bromwich Albion Ativo 125 / 99 40% 2 26.05.2027 -
Renato Júnior Al Wasl Negociando 126 / 110 40% 1 26.05.2027 -
Mohanad Ali Dibba Ativo 122 / 110 40% 1 25.05.2027 -
Calum Kavanagh Oldham Athletic Ativo 100 / 102 40% 2 24.05.2027 -
Luca Moro Padova Ativo 136 / 122 40% 1 24.05.2027 -
Christian Saydee Wigan Athletic Ativo 130 / 121 40% 2 23.05.2027 -
Emanuele Schimmenti Potenza Ativo 107 / 123 40% 1 23.05.2027 -
Iwan Morgan Grimsby Town Ativo 109 / 109 40% 4 22.05.2027 -
Bali Mumba Huddersfield Town Ativo 114 / 99 40% 1 20.05.2027 -
Lewis Gibson Preston Ativo 134 / 121 40% 1 18.05.2027 -
Kane Wilson Milton Keynes Dons Ativo 116 / 123 40% 1 17.05.2027 -
Seidu Basit Ashanti Gold Ativo 107 / 90 40% 1 14.05.2027 -
Georgie Gent Barnsley Ativo 114 / 124 40% 1 13.05.2027 -
David Petrović Al Nasr Ativo 119 / 123 40% 1 13.05.2027 -
Jadsom Al Wahda Ativo 139 / 126 40% 4 12.05.2027 -
Bradley Fink Wycombe Wanderers Ativo 98 / 115 40% 2 11.05.2027 -
AS Etat Major Ativo 88 / 77 40% 1 11.05.2027 -
Sam Bell Bristol City Ativo 138 / 108 40% 1 09.05.2027 -
Abdoulaye Kanté Al-Ettifaq Ativo 118 / 108 40% 2 08.05.2027 -
Camillo Tavernelli Arezzo Ativo 109 / 100 40% 1 05.05.2027 -
Patrick Addo Great Olympics Ativo 95 / 103 40% 1 05.05.2027 Mais informações
Filip Stojilković Pisa Ativo 114 / 143 40% 1 04.05.2027 -
Xavier Simons Bolton Wanderers Ativo 108 / 107 40% 1 03.05.2027 -
Lewis McCann Fleetwood Town Ativo 118 / 118 40% 1 03.05.2027 -
Harry Leonard Peterborough United Ativo 90 / 121 40% 1 02.05.2027 -
Younes El Bahraoui Al-Taawoun Ativo 121 / 126 40% 1 02.05.2027 -
Lee Bonis Chesterfield Ativo 121 / 120 40% 2 29.04.2027 -
Justin Devenny Stoke City Ativo 113 / 109 40% 1 29.04.2027 -
Adrià Altimira Deportivo La Coruña Ativo 115 / 117 40% 1 29.04.2027 -
Daniel Gnahoua CS Constantine Ativo 100 / 109 40% 1 29.04.2027 -
Malik Mothersille Stockport County Ativo 129 / 102 40% 1 28.04.2027 -
Matthew Dennis Notts County Ativo 106 / 109 40% 1 26.04.2027 -
Andri Guðjohnsen Blackburn Rovers Ativo 105 / 109 40% 1 26.04.2027 -
Ali Al Shamsi Al Shaab Ativo 120 / 106 40% 1 25.04.2027 -
Aidomo Emakhu Oxford United Ativo 111 / 119 40% 2 24.04.2027 -
Emanuele Pecorino Catanzaro Ativo 129 / 117 40% 1 23.04.2027 -
Caspar Jander Southampton Ativo 125 / 129 40% 1 23.04.2027 -
Nobel Mendy Hull City Ativo 139 / 134 40% 1 23.04.2027 -
Richard Koné Queens Park Rangers Ativo 127 / 139 40% 1 20.04.2027 -
Khaled Al-Nabris Ismaily Ativo 109 / 82 40% 1 15.04.2027 -
Thamsanqa Dolly Free State Stars Ativo 101 / 115 40% 1 15.04.2027 -
Sunusi Ibrahim Cotonsport Garoua Ativo 122 / 107 40% 1 12.04.2027 Mais informações
Niall Ennis Blackpool Ativo 127 / 129 40% 1 12.04.2027 -
Hamza Issah Hearts of Oak Ativo 99 / 87 40% 1 07.04.2027 -
Luan Pereira Sharjah Ativo 135 / 113 40% 2 20.03.2027 -
Mohamed Zoungrana MC Alger Ativo 112 / 126 40% 1 12.03.2027 -
Milson Al Jazira Ativo 121 / 113 40% 1 11.03.2027 -
Matheus Gonçalves Al-Ahli Ativo 117 / 120 40% 4 10.03.2027 -
Oston O'runov Persepolis Ativo 112 / 123 40% 2 10.03.2027 -
Hamdi Labidi Olympique Akbou Ativo 93 / 119 40% 1 09.03.2027 -
Mamadou Coulibaly Al Jazira Ativo 130 / 139 40% 1 09.03.2027 -
Jovon Makama Norwich City Ativo 138 / 112 40% 1 08.03.2027 -
Serginho Al Wasl Ativo 128 / 139 40% 1 04.03.2027 -
Haissem Hassan Bloemfontein Celtic Ativo 145 / 153 40% 2 28.02.2027 -
Juan Bezerra Zamalek Ativo 125 / 126 40% 2 26.02.2027 -
Armstrong Oko-Flex Levski Ativo 112 / 141 40% 1 23.02.2027 -
Ahmed Al-Ghamdi Al-Ittihad Ativo 117 / 106 40% 1 23.02.2027 -
Ousmane Camara Sharjah Ativo 133 / 116 40% 1 20.02.2027 -
Ahmed Al-Nakhli Al-Hazem Ativo 113 / 121 40% 2 19.02.2027 -
Marcelo Allende Mamelodi Sundowns Ativo 144 / 137 40% 2 18.02.2027 -
Roger Fernandes Al-Ittihad Ativo 125 / 142 40% 1 18.02.2027 -
Bradley Hlatshwayo SuperSport United Ativo 113 / 114 40% 1 16.02.2027 -
Zaydou Youssouf Al-Fateh Ativo 125 / 141 40% 1 16.02.2027 -
Bonheur Mugisha Al-Hazem Ativo 105 / 106 40% 1 15.02.2027 -
Hugo Al Wasl Ativo 110 / 120 40% 1 13.02.2027 -
Tshepang Moremi Orlando Pirates Negociando 103 / 95 40% 1 12.02.2027 -
Marin Petkov Al-Taawoun Ativo 116 / 110 40% 1 12.02.2027 -
Khalid Al-Ghannam Al-Ettifaq Ativo 114 / 114 40% 1 09.02.2027 -
Aiman Yahya Al-Nassr Ativo 126 / 112 40% 1 04.02.2027 -